Woodland, AL

10:30 PM CST on February 26, 2015 (GMT -0600)
Swagg Cove | Change Station
CLOSE
Current Station
Personal Weather Station
Location: Wedowee, AL
Elevation: 801 ft
Nearby Weather Stations

Elev 801 ft 33.35 °N, 85.55 °W | Updated 52 seconds ago

Clear
Clear
27.7 °F
Feels Like 28 °F
N
0.0
Wind Variable Wind from North
Gusts 0.0 mph

Today
High -- | Low -- °F
--% Chance of Precip.
Yesterday
High -- | Low -- °F
Precip. -- in
6:13 AM 5:35 PM
Waxing Gibbous, 65% visible
Pressure 30.21 in
Visibility 10.0 miles
Clouds Clear
Windchill 28 °F
Dew Point 24 °F
Humidity 86%
Rainfall 19.25 in
Snow Depth Not available.
UV 0 out of 12
Pollen 4.10 out of 12
Air Quality Not available.
Flu Activity Not available.
METAR KCTJ 270415Z AUTO 31003KT 10SM CLR 00/00 A3021 RMK AO2

More Conditions Fewer Conditions

Pressure 30.21 in
Visibility 10.0 miles
Clouds Clear
Windchill 28 °F
Dew Point 24 °F
Humidity 86%
Rainfall 19.25 in
Snow Depth Not available.
UV 0 out of 12
Pollen 4.10 out of 12
Air Quality Not available.
Flu Activity Not available.
METAR KCTJ 270415Z AUTO 31003KT 10SM CLR 00/00 A3021 RMK AO2

More Conditions Fewer Conditions

10-Day Weather Forecast

Almanac

Astronomy

Feb. 26, 2015 Rise Set
Actual Time
Civil Twilight
Nautical Twilight
Astronomical Twilight
Moon
Length of Visible Light
Length of Day
Tomorrow will be .
, % of the Moon is Illuminated

Today's Extremes

State Highs State Lows

Community

WunderPhotos

Upload Photos

1,800,623 photos uploaded!

WunderBlogs® & News

Nearby

Air Quality

  Air Quality AQ Index Pollutant
Not available.

Snow Depth

Station Depth Elevation

Earthquake Activity

City Distance Mag. Time & Date
Minimum magnitude displayed is 2.5.

Coastal Water Temperatures

Place Temperature

Nearby Weather Stations